Time;durP1;ratioP1;P1;durP2;ratioP2;P2;SDS_P1;SDS_P2;PMS_P1;PMS_P2;Temp;Humidity;BMP_temperature;BMP_pressure;BME280_temperature;BME280_humidity;BME280_pressure;Samples;Min_cycle;Max_cycle;Signal;HPM_P1;HPM_P2
2021/01/16 00:01:41;;;;;;;2.88;2.50;;;17.60;42.90;;;;;;5088236;28;20582;-58
2021/01/16 00:04:09;;;;;;;3.08;2.13;;;17.50;42.90;;;;;;5087652;28;20086;-58
2021/01/16 00:06:37;;;;;;;3.08;2.28;;;17.50;42.80;;;;;;5087044;28;20541;-59
2021/01/16 00:09:04;;;;;;;2.60;2.00;;;17.50;42.80;;;;;;5091184;28;20047;-59
2021/01/16 00:11:31;;;;;;;3.38;2.22;;;17.50;42.80;;;;;;5101663;28;20089;-62
2021/01/16 00:13:57;;;;;;;3.05;2.80;;;17.50;42.80;;;;;;5101541;27;20109;-60
2021/01/16 00:16:24;;;;;;;3.00;2.78;;;17.50;42.80;;;;;;5097652;28;20050;-61
2021/01/16 00:18:51;;;;;;;3.90;2.05;;;17.50;42.80;;;;;;5100831;28;20052;-66
2021/01/16 00:21:17;;;;;;;2.72;2.10;;;17.50;42.80;;;;;;5097340;28;20043;-59
2021/01/16 00:23:45;;;;;;;2.35;2.17;;;17.50;42.70;;;;;;5098927;28;20064;-60
2021/01/16 00:26:11;;;;;;;3.58;3.28;;;17.40;42.60;;;;;;5100979;28;20142;-61
2021/01/16 00:28:38;;;;;;;3.47;2.20;;;17.40;42.60;;;;;;5101353;28;20048;-60
2021/01/16 00:31:05;;;;;;;2.55;2.08;;;17.40;42.60;;;;;;5100385;28;20055;-60
2021/01/16 00:33:32;;;;;;;3.00;2.58;;;17.40;42.60;;;;;;5099309;28;20052;-60
2021/01/16 00:36:00;;;;;;;2.75;2.55;;;17.40;42.60;;;;;;5100083;28;20036;-60
2021/01/16 00:38:28;;;;;;;3.05;2.72;;;17.40;42.50;;;;;;5099922;28;20048;-66
2021/01/16 00:40:57;;;;;;;3.45;2.67;;;17.40;42.50;;;;;;5089840;28;20055;-65
2021/01/16 00:43:24;;;;;;;4.18;3.88;;;17.30;42.40;;;;;;5087362;28;20044;-60
2021/01/16 00:45:52;;;;;;;5.35;3.30;;;17.30;42.50;;;;;;5086813;28;20055;-63
2021/01/16 00:48:20;;;;;;;3.88;3.50;;;17.30;42.50;;;;;;5085949;28;20048;-63
2021/01/16 00:50:49;;;;;;;4.72;3.30;;;17.30;42.60;;;;;;5087086;28;20036;-59
2021/01/16 00:53:18;;;;;;;4.15;3.75;;;17.30;42.60;;;;;;5087383;28;20055;-57
2021/01/16 00:55:57;;;;;;;6.75;3.83;;;17.30;42.50;;;;;;5086420;28;20074;-54
2021/01/16 00:58:29;;;;;;;6.47;3.92;;;17.20;42.60;;;;;;5085588;28;20089;-59
2021/01/16 01:01:03;;;;;;;4.40;4.03;;;17.20;42.60;;;;;;5086589;28;20048;-61
2021/01/16 01:03:35;;;;;;;5.60;4.30;;;17.20;42.60;;;;;;5084845;28;20052;-59
2021/01/16 01:06:02;;;;;;;5.05;4.55;;;17.20;42.60;;;;;;5087231;28;20404;-59
2021/01/16 01:08:29;;;;;;;4.50;3.88;;;17.20;42.60;;;;;;5085914;28;20715;-59
2021/01/16 01:10:58;;;;;;;5.85;3.90;;;17.20;42.60;;;;;;5087504;28;20048;-61
2021/01/16 01:13:25;;;;;;;5.30;4.32;;;17.20;42.60;;;;;;5087011;28;20396;-58
2021/01/16 01:15:51;;;;;;;6.13;4.57;;;17.10;42.50;;;;;;5084810;28;20067;-56
2021/01/16 01:18:18;;;;;;;6.00;5.30;;;17.10;42.50;;;;;;5086315;28;20057;-59
2021/01/16 01:20:44;;;;;;;6.97;4.22;;;17.10;42.50;;;;;;5087048;28;20051;-58
2021/01/16 01:23:11;;;;;;;6.70;4.90;;;17.10;42.50;;;;;;5086397;28;20052;-59
2021/01/16 01:25:37;;;;;;;4.53;4.10;;;17.10;42.40;;;;;;5086162;28;20094;-60
2021/01/16 01:28:05;;;;;;;7.13;4.22;;;17.10;42.70;;;;;;5086469;28;20423;-60
2021/01/16 01:30:32;;;;;;;6.25;4.18;;;17.10;42.50;;;;;;5080025;28;20193;-61
2021/01/16 01:32:59;;;;;;;5.22;4.68;;;17.00;42.40;;;;;;5086707;28;20075;-61
2021/01/16 01:35:27;;;;;;;6.90;3.83;;;17.00;42.40;;;;;;5085983;28;20500;-60
2021/01/16 01:37:55;;;;;;;5.88;4.50;;;17.00;42.40;;;;;;5088202;28;20488;-60
2021/01/16 01:40:23;;;;;;;4.63;4.10;;;17.00;42.40;;;;;;5089335;28;20052;-61
2021/01/16 01:42:52;;;;;;;5.43;4.15;;;17.00;42.40;;;;;;5090538;28;20407;-60
2021/01/16 01:45:20;;;;;;;9.73;4.65;;;17.00;42.40;;;;;;5090486;28;20066;-65
2021/01/16 01:47:48;;;;;;;7.05;4.53;;;16.90;42.30;;;;;;5089775;28;20078;-63
2021/01/16 01:50:16;;;;;;;6.85;4.13;;;17.00;42.40;;;;;;5090440;28;20495;-61
2021/01/16 01:52:43;;;;;;;4.13;3.80;;;16.90;42.30;;;;;;5091116;28;20073;-64
2021/01/16 01:55:12;;;;;;;4.65;3.95;;;16.90;42.30;;;;;;5090220;28;20107;-61
2021/01/16 01:57:40;;;;;;;4.90;4.13;;;16.90;42.40;;;;;;5089596;28;20052;-61
2021/01/16 02:00:08;;;;;;;6.15;3.75;;;16.90;42.40;;;;;;5090044;28;20044;-67
2021/01/16 02:02:43;;;;;;;5.50;3.83;;;16.90;42.40;;;;;;5085496;28;20052;-61
2021/01/16 02:05:12;;;;;;;4.63;4.22;;;16.90;42.40;;;;;;5090921;28;20102;-61
2021/01/16 02:07:39;;;;;;;4.40;4.00;;;16.80;42.30;;;;;;5090017;28;20054;-61
2021/01/16 02:10:09;;;;;;;5.15;4.65;;;16.80;42.30;;;;;;5089713;28;20059;-56
2021/01/16 02:12:37;;;;;;;4.50;4.10;;;16.80;42.30;;;;;;5088307;28;20056;-60
2021/01/16 02:15:15;;;;;;;4.22;3.83;;;16.80;42.20;;;;;;5090576;28;20080;-61
2021/01/16 02:17:45;;;;;;;8.10;4.43;;;16.80;42.20;;;;;;5087723;28;20104;-60
2021/01/16 02:20:14;;;;;;;5.43;4.10;;;16.80;42.00;;;;;;5089574;28;20516;-60
2021/01/16 02:22:51;;;;;;;5.53;4.43;;;16.80;42.00;;;;;;5090293;28;20086;-60
2021/01/16 02:25:30;;;;;;;4.20;3.80;;;16.80;42.10;;;;;;5089597;28;20052;-60
2021/01/16 02:28:02;;;;;;;3.25;3.05;;;16.80;42.10;;;;;;5084424;28;20083;-62
2021/01/16 02:30:32;;;;;;;5.65;4.22;;;16.80;42.00;;;;;;5089328;28;20044;-62
2021/01/16 02:33:02;;;;;;;4.63;3.15;;;16.80;41.90;;;;;;5089488;28;20044;-60
2021/01/16 02:35:31;;;;;;;4.38;3.17;;;16.80;41.80;;;;;;5089631;28;20121;-61
2021/01/16 02:38:12;;;;;;;3.97;3.58;;;16.90;41.80;;;;;;5090414;28;20235;-61
2021/01/16 02:40:43;;;;;;;4.07;3.67;;;16.90;41.80;;;;;;5089546;28;20048;-60
2021/01/16 02:43:32;;;;;;;4.03;3.15;;;16.90;41.80;;;;;;5088061;28;20040;-61
2021/01/16 02:46:19;;;;;;;3.30;3.10;;;16.90;41.60;;;;;;5084151;28;20040;-61
2021/01/16 02:49:04;;;;;;;4.00;3.20;;;16.90;41.50;;;;;;5088055;28;20507;-61
2021/01/16 02:51:40;;;;;;;3.90;3.35;;;16.90;41.50;;;;;;5089002;28;20040;-60
2021/01/16 02:54:09;;;;;;;3.77;3.50;;;16.90;41.40;;;;;;5083715;28;20067;-62
2021/01/16 02:56:37;;;;;;;3.67;3.42;;;16.90;41.20;;;;;;5082395;28;20044;-62
2021/01/16 02:59:05;;;;;;;3.72;3.38;;;16.90;41.10;;;;;;5090364;28;20048;-57
2021/01/16 03:01:36;;;;;;;6.30;3.85;;;16.90;41.00;;;;;;5089453;28;20515;-56
2021/01/16 03:04:03;;;;;;;4.57;3.55;;;16.90;41.10;;;;;;5088551;28;20036;-59
2021/01/16 03:06:32;;;;;;;5.43;3.95;;;16.90;40.90;;;;;;5086977;28;20082;-55
2021/01/16 03:09:01;;;;;;;4.85;4.05;;;16.90;40.80;;;;;;5086107;28;20052;-58
2021/01/16 03:11:28;;;;;;;3.70;3.40;;;16.90;40.70;;;;;;5088309;28;20510;-62
2021/01/16 03:13:58;;;;;;;4.00;3.63;;;16.90;40.60;;;;;;5090133;28;20050;-59
2021/01/16 03:16:28;;;;;;;4.68;4.28;;;16.90;40.50;;;;;;5088867;28;20052;-59
2021/01/16 03:18:56;;;;;;;3.47;2.97;;;16.90;40.60;;;;;;5089347;28;20087;-67
2021/01/16 03:21:23;;;;;;;4.25;3.85;;;16.90;40.50;;;;;;5088195;28;20190;-62
2021/01/16 03:23:50;;;;;;;4.65;3.53;;;17.00;40.50;;;;;;5088856;28;20131;-59
2021/01/16 03:26:16;;;;;;;4.38;3.97;;;17.00;40.50;;;;;;5088164;28;20083;-54
2021/01/16 03:28:43;;;;;;;4.35;3.95;;;17.00;40.30;;;;;;5089591;28;20060;-57
2021/01/16 03:31:09;;;;;;;5.05;3.78;;;17.00;40.30;;;;;;5088770;28;20131;-61
2021/01/16 03:33:36;;;;;;;4.28;3.80;;;17.00;40.30;;;;;;5088409;28;20059;-60
2021/01/16 03:36:03;;;;;;;4.25;3.72;;;17.00;40.30;;;;;;5088199;28;20051;-62
2021/01/16 03:38:30;;;;;;;3.97;3.53;;;17.00;40.20;;;;;;5087713;28;20127;-60
2021/01/16 03:40:57;;;;;;;5.18;4.18;;;17.00;40.10;;;;;;5088892;28;20651;-61
2021/01/16 03:43:23;;;;;;;4.18;3.78;;;17.00;40.10;;;;;;5087871;28;20052;-55
2021/01/16 03:45:50;;;;;;;3.60;3.30;;;17.00;40.10;;;;;;5085484;28;20142;-65
2021/01/16 03:48:16;;;;;;;7.40;4.95;;;17.00;40.10;;;;;;5086888;28;20082;-57
2021/01/16 03:50:43;;;;;;;5.93;4.13;;;17.00;40.00;;;;;;5087820;28;20032;-61
2021/01/16 03:53:10;;;;;;;4.93;4.30;;;17.00;40.00;;;;;;5088520;28;20044;-62
2021/01/16 03:55:36;;;;;;;5.55;3.97;;;17.00;39.90;;;;;;5088656;28;20135;-63
2021/01/16 03:58:03;;;;;;;4.90;4.43;;;17.00;39.90;;;;;;5096889;28;20043;-63
2021/01/16 04:00:30;;;;;;;4.55;4.15;;;17.00;39.80;;;;;;5096021;28;20044;-62
2021/01/16 04:02:56;;;;;;;3.80;3.17;;;17.00;40.40;;;;;;5098194;28;20051;-57
2021/01/16 04:05:23;;;;;;;7.75;4.47;;;17.00;39.80;;;;;;5097795;28;20456;-53
2021/01/16 04:07:51;;;;;;;4.07;3.70;;;17.00;39.70;;;;;;5102694;28;20052;-51
2021/01/16 04:10:17;;;;;;;7.15;5.10;;;17.10;39.70;;;;;;5098280;28;20500;-50
2021/01/16 04:12:44;;;;;;;4.35;3.78;;;17.00;39.50;;;;;;5096535;28;20047;-55
2021/01/16 04:15:11;;;;;;;4.10;3.63;;;17.10;39.60;;;;;;5101000;28;20127;-54
2021/01/16 04:17:38;;;;;;;3.67;3.17;;;17.10;39.50;;;;;;5099811;28;20712;-58
2021/01/16 04:20:05;;;;;;;3.65;3.15;;;17.10;39.50;;;;;;5100860;28;20201;-48
2021/01/16 04:22:36;;;;;;;4.05;3.65;;;17.10;39.50;;;;;;5085867;28;20056;-53
2021/01/16 04:25:05;;;;;;;4.18;3.88;;;17.10;39.50;;;;;;5098547;28;20055;-61
2021/01/16 04:27:33;;;;;;;4.55;3.80;;;17.00;39.30;;;;;;5091121;28;20040;-56
2021/01/16 04:29:59;;;;;;;4.28;3.90;;;17.10;39.30;;;;;;5087015;28;20040;-55
2021/01/16 04:32:27;;;;;;;4.72;3.95;;;17.10;39.30;;;;;;5086769;28;20083;-50
2021/01/16 04:34:54;;;;;;;4.07;3.65;;;17.10;39.20;;;;;;5088871;28;20048;-55
2021/01/16 04:37:21;;;;;;;4.10;3.67;;;17.10;39.20;;;;;;5086946;28;20036;-54
2021/01/16 04:39:47;;;;;;;4.82;3.90;;;17.10;39.10;;;;;;5087297;28;20040;-55
2021/01/16 04:42:15;;;;;;;4.65;4.25;;;17.10;39.20;;;;;;5087194;28;20131;-56
2021/01/16 04:44:44;;;;;;;4.35;3.95;;;17.10;39.10;;;;;;5086255;28;20078;-50
2021/01/16 04:47:17;;;;;;;4.07;3.78;;;17.10;39.10;;;;;;5085286;28;20040;-57
2021/01/16 04:49:44;;;;;;;4.68;3.58;;;17.00;39.00;;;;;;5087142;28;20056;-58
2021/01/16 04:52:11;;;;;;;3.25;2.85;;;17.00;38.90;;;;;;5086692;28;20048;-56
2021/01/16 04:54:40;;;;;;;8.52;3.53;;;17.10;39.00;;;;;;5086706;28;20093;-50
2021/01/16 04:57:12;;;;;;;4.13;3.47;;;17.10;39.00;;;;;;5087244;28;20119;-59
2021/01/16 04:59:40;;;;;;;4.43;4.03;;;17.10;39.00;;;;;;5083218;28;20078;-57
2021/01/16 05:02:10;;;;;;;7.03;3.53;;;17.10;39.00;;;;;;5087885;28;20500;-58
2021/01/16 05:04:39;;;;;;;4.25;3.80;;;17.00;38.90;;;;;;5087621;28;20040;-59
2021/01/16 05:07:09;;;;;;;4.40;3.05;;;17.00;38.80;;;;;;5085812;28;20059;-57
2021/01/16 05:09:39;;;;;;;4.55;4.15;;;17.10;38.80;;;;;;5086018;28;20071;-50
2021/01/16 05:12:28;;;;;;;4.95;4.55;;;17.10;38.80;;;;;;5084635;28;20059;-50
2021/01/16 05:15:04;;;;;;;4.30;3.67;;;17.10;38.90;;;;;;5084065;28;20047;-57
2021/01/16 05:17:36;;;;;;;3.50;3.25;;;17.10;38.80;;;;;;5089934;28;20052;-59
2021/01/16 05:20:03;;;;;;;3.35;3.08;;;17.00;38.60;;;;;;5091743;28;20075;-55
2021/01/16 05:22:31;;;;;;;3.60;3.30;;;17.00;38.70;;;;;;5088191;28;20056;-57
2021/01/16 05:25:05;;;;;;;5.00;2.97;;;17.00;38.60;;;;;;5090467;28;20094;-52
2021/01/16 05:27:34;;;;;;;4.65;3.33;;;17.00;38.70;;;;;;5090953;28;20070;-55
2021/01/16 05:30:06;;;;;;;4.20;3.50;;;17.00;38.60;;;;;;5090461;28;20807;-67
2021/01/16 05:32:33;;;;;;;3.58;3.28;;;17.00;38.60;;;;;;5090271;28;20071;-61
2021/01/16 05:35:17;;;;;;;4.28;3.22;;;17.00;38.50;;;;;;5091774;28;20048;-61
2021/01/16 05:37:46;;;;;;;3.47;3.13;;;17.00;38.70;;;;;;5091630;28;20040;-53
2021/01/16 05:40:14;;;;;;;2.75;2.55;;;17.00;38.70;;;;;;5089066;28;20834;-55
2021/01/16 05:42:42;;;;;;;5.00;2.88;;;17.00;38.60;;;;;;5090759;28;20143;-53
2021/01/16 05:45:12;;;;;;;4.70;3.35;;;17.00;38.50;;;;;;5090029;28;20046;-50
2021/01/16 05:47:43;;;;;;;2.92;2.72;;;17.00;38.50;;;;;;5083709;28;20048;-56
2021/01/16 05:50:11;;;;;;;4.18;2.97;;;17.00;38.60;;;;;;5086524;28;20048;-60
2021/01/16 05:52:37;;;;;;;6.35;4.70;;;17.00;38.50;;;;;;5091295;28;20044;-51
2021/01/16 05:55:06;;;;;;;3.50;3.20;;;17.00;38.50;;;;;;5090149;28;20123;-51
2021/01/16 05:57:33;;;;;;;3.03;2.65;;;17.00;38.50;;;;;;5089238;28;20052;-49
2021/01/16 06:00:01;;;;;;;4.28;2.42;;;17.00;38.70;;;;;;5088395;28;20698;-47
2021/01/16 06:02:31;;;;;;;4.25;3.08;;;17.00;38.50;;;;;;5088388;28;20658;-50
2021/01/16 06:04:59;;;;;;;4.28;2.63;;;17.00;38.60;;;;;;5089237;28;20055;-51
2021/01/16 06:07:27;;;;;;;3.88;2.83;;;17.00;39.00;;;;;;5088781;28;20040;-48
2021/01/16 06:09:54;;;;;;;3.05;2.60;;;17.00;39.40;;;;;;5089925;28;20040;-56
2021/01/16 06:12:22;;;;;;;3.30;3.08;;;17.00;39.50;;;;;;5088738;28;20124;-64
2021/01/16 06:14:50;;;;;;;3.25;3.03;;;17.00;39.70;;;;;;5087862;28;20500;-52
2021/01/16 06:17:18;;;;;;;3.88;3.55;;;17.00;39.90;;;;;;5088280;28;20051;-48
2021/01/16 06:19:47;;;;;;;2.70;2.50;;;17.00;40.00;;;;;;5087883;28;20047;-53
2021/01/16 06:22:17;;;;;;;3.30;3.08;;;17.00;40.10;;;;;;5086155;28;20085;-47
2021/01/16 06:24:47;;;;;;;3.70;3.38;;;17.00;40.10;;;;;;5088725;28;20093;-56
2021/01/16 06:27:24;;;;;;;3.33;3.03;;;17.00;40.10;;;;;;5089354;28;20166;-50
2021/01/16 06:29:58;;;;;;;7.47;3.00;;;17.00;40.10;;;;;;5088844;28;20405;-48
2021/01/16 06:32:26;;;;;;;3.97;3.17;;;17.00;40.10;;;;;;5088430;28;20144;-49
2021/01/16 06:35:07;;;;;;;3.03;2.83;;;17.00;40.10;;;;;;5090340;28;20039;-54
2021/01/16 06:37:42;;;;;;;2.95;2.65;;;17.00;40.10;;;;;;5089257;28;20055;-47
2021/01/16 06:40:09;;;;;;;3.15;2.95;;;17.00;40.20;;;;;;5089345;28;20047;-50
2021/01/16 06:42:37;;;;;;;3.70;2.75;;;16.90;40.10;;;;;;5088126;28;20080;-52
2021/01/16 06:45:06;;;;;;;3.67;3.38;;;17.00;40.20;;;;;;5086700;28;20138;-54
2021/01/16 06:47:34;;;;;;;2.53;2.42;;;17.00;40.20;;;;;;5087685;28;20562;-47
2021/01/16 06:50:03;;;;;;;3.42;2.92;;;16.90;40.20;;;;;;5088115;28;20576;-55
2021/01/16 06:52:37;;;;;;;4.78;3.30;;;16.90;40.20;;;;;;5088369;28;20115;-54
2021/01/16 06:55:06;;;;;;;3.83;3.35;;;16.90;40.20;;;;;;5086880;28;20450;-56
2021/01/16 06:57:34;;;;;;;3.22;2.45;;;16.90;40.20;;;;;;5085398;28;20523;-50
2021/01/16 07:00:04;;;;;;;2.65;2.42;;;16.90;40.20;;;;;;5085490;28;20083;-50
2021/01/16 07:02:32;;;;;;;2.88;2.65;;;16.90;40.20;;;;;;5084441;28;20055;-61
2021/01/16 07:05:01;;;;;;;5.85;3.05;;;16.90;40.20;;;;;;5083507;28;20412;-55
2021/01/16 07:07:30;;;;;;;3.55;3.08;;;16.90;40.30;;;;;;5081158;28;20480;-48
2021/01/16 07:09:59;;;;;;;3.80;2.45;;;16.90;40.40;;;;;;5080853;28;20051;-48
2021/01/16 07:12:26;;;;;;;3.15;2.55;;;16.90;40.10;;;;;;5081006;28;20138;-49
2021/01/16 07:14:53;;;;;;;3.53;2.38;;;16.90;39.90;;;;;;5082228;28;20058;-60
2021/01/16 07:17:22;;;;;;;2.85;2.63;;;16.90;39.90;;;;;;5080737;28;20101;-50
2021/01/16 07:19:49;;;;;;;2.22;2.05;;;16.80;39.80;;;;;;5082778;28;20186;-55
2021/01/16 07:22:16;;;;;;;4.63;2.53;;;16.80;39.70;;;;;;5081851;28;20056;-51
2021/01/16 07:24:45;;;;;;;4.20;3.33;;;16.80;39.80;;;;;;5083281;28;22163;-59
2021/01/16 07:27:13;;;;;;;2.85;2.65;;;16.80;39.70;;;;;;5087274;28;20044;-54
2021/01/16 07:29:41;;;;;;;2.65;2.45;;;16.80;39.60;;;;;;5093139;28;20127;-50
2021/01/16 07:32:17;;;;;;;5.68;4.32;;;16.80;39.60;;;;;;5105161;28;20057;-53
2021/01/16 07:34:46;;;;;;;6.53;3.10;;;16.80;39.60;;;;;;5088748;28;20600;-50
2021/01/16 07:37:13;;;;;;;7.47;3.08;;;16.80;41.10;;;;;;5087738;28;20068;-50
2021/01/16 07:39:43;;;;;;;6.03;2.80;;;16.80;41.90;;;;;;5085238;28;20041;-55
2021/01/16 07:42:15;;;;;;;2.97;2.70;;;16.80;42.70;;;;;;5088556;28;20048;-50
2021/01/16 07:44:44;;;;;;;5.60;3.92;;;16.80;43.20;;;;;;5083412;28;20538;-50
2021/01/16 07:47:22;;;;;;;5.15;4.00;;;16.80;43.20;;;;;;5087482;28;20431;-52
2021/01/16 07:49:54;;;;;;;6.78;3.47;;;16.80;43.60;;;;;;5087512;28;20076;-50
2021/01/16 07:52:24;;;;;;;9.20;3.45;;;16.80;43.50;;;;;;5084640;28;20078;-51
2021/01/16 07:55:07;;;;;;;4.45;3.38;;;16.80;43.40;;;;;;5086604;28;20055;-52
2021/01/16 07:57:35;;;;;;;4.47;3.38;;;16.80;43.50;;;;;;5086053;28;20051;-54
2021/01/16 08:00:06;;;;;;;6.55;3.13;;;16.70;43.30;;;;;;5086331;28;20520;-52
2021/01/16 08:02:39;;;;;;;6.15;3.92;;;16.80;43.50;;;;;;5086431;28;20464;-51
2021/01/16 08:05:24;;;;;;;7.07;4.00;;;16.70;43.20;;;;;;5085002;28;20078;-52
2021/01/16 08:08:31;;;;;;;7.68;3.42;;;16.80;43.10;;;;;;5086689;28;20153;-51
2021/01/16 08:11:03;;;;;;;3.75;3.40;;;16.80;43.00;;;;;;5088562;28;20146;-53
2021/01/16 08:13:30;;;;;;;4.43;4.05;;;16.70;42.90;;;;;;5084954;28;20464;-53
2021/01/16 08:16:02;;;;;;;5.82;4.18;;;16.70;43.00;;;;;;5084457;28;20048;-52
2021/01/16 08:18:32;;;;;;;4.57;3.13;;;16.70;42.90;;;;;;5077746;28;20130;-54
2021/01/16 08:21:07;;;;;;;3.70;3.40;;;16.70;42.70;;;;;;5085272;28;20048;-53
2021/01/16 08:23:46;;;;;;;3.40;3.10;;;16.70;42.70;;;;;;5085828;28;20059;-55
2021/01/16 08:26:15;;;;;;;7.93;3.67;;;16.70;42.70;;;;;;5085536;28;20047;-54
2021/01/16 08:28:44;;;;;;;4.50;3.28;;;16.70;42.50;;;;;;5088086;28;20538;-53
2021/01/16 08:31:30;;;;;;;3.38;3.13;;;16.70;42.40;;;;;;5085825;28;20485;-51
2021/01/16 08:33:57;;;;;;;12.55;3.20;;;16.70;42.30;;;;;;5086562;28;20067;-49
2021/01/16 08:36:27;;;;;;;3.38;2.45;;;16.60;42.20;;;;;;5086281;28;20061;-54
2021/01/16 08:38:54;;;;;;;5.30;3.63;;;16.70;42.30;;;;;;5072222;28;20143;-52
2021/01/16 08:41:24;;;;;;;2.72;2.53;;;16.70;42.10;;;;;;5086368;28;20108;-54
2021/01/16 08:43:53;;;;;;;3.03;2.50;;;16.70;42.10;;;;;;5086557;28;20044;-54
2021/01/16 08:46:26;;;;;;;6.68;2.72;;;16.60;42.00;;;;;;5085713;28;20117;-53
2021/01/16 08:49:05;;;;;;;3.75;3.10;;;16.60;42.00;;;;;;5083689;28;20064;-54
2021/01/16 08:51:37;;;;;;;2.70;2.50;;;16.70;41.90;;;;;;5083563;28;20036;-50
2021/01/16 08:54:08;;;;;;;3.10;2.80;;;16.70;41.80;;;;;;5086060;28;20036;-48
2021/01/16 08:56:36;;;;;;;3.88;3.47;;;16.60;41.70;;;;;;5086957;28;20056;-49
2021/01/16 08:59:18;;;;;;;3.85;2.83;;;16.60;41.70;;;;;;5088075;28;20532;-49
2021/01/16 09:01:45;;;;;;;4.28;2.65;;;16.60;41.80;;;;;;5088007;28;20677;-51
2021/01/16 09:04:20;;;;;;;3.83;2.92;;;16.60;41.60;;;;;;5087346;28;20419;-48
2021/01/16 09:06:47;;;;;;;3.13;2.90;;;16.60;41.60;;;;;;5086957;28;20500;-55
2021/01/16 09:09:15;;;;;;;3.92;2.80;;;16.60;41.50;;;;;;5086331;28;20079;-49
2021/01/16 09:12:05;;;;;;;4.15;2.83;;;16.50;41.40;;;;;;5086895;28;20044;-50
2021/01/16 09:14:32;;;;;;;3.38;3.10;;;16.60;41.50;;;;;;5086909;28;20044;-49
2021/01/16 09:17:14;;;;;;;2.67;2.28;;;16.60;41.50;;;;;;5088609;28;20135;-51
2021/01/16 09:19:42;;;;;;;3.80;3.50;;;16.60;41.60;;;;;;5087150;28;20051;-52
2021/01/16 09:22:19;;;;;;;3.63;2.58;;;16.50;41.60;;;;;;5086049;28;20135;-53
2021/01/16 09:24:46;;;;;;;2.05;1.90;;;16.60;41.30;;;;;;5087115;28;20072;-55
2021/01/16 09:27:29;;;;;;;4.47;2.15;;;16.50;41.80;;;;;;5086549;28;20068;-52
2021/01/16 09:29:57;;;;;;;4.13;2.40;;;16.60;41.40;;;;;;5078215;28;20044;-54
2021/01/16 09:32:30;;;;;;;2.90;2.25;;;16.50;41.30;;;;;;5086641;28;20118;-52
2021/01/16 09:34:57;;;;;;;4.50;3.78;;;16.50;41.50;;;;;;5087962;28;20067;-54
2021/01/16 09:37:24;;;;;;;5.07;3.55;;;16.50;41.30;;;;;;5086995;28;20044;-53
2021/01/16 09:40:02;;;;;;;3.88;3.55;;;16.50;41.40;;;;;;5083224;28;20052;-53
2021/01/16 09:42:29;;;;;;;3.65;2.55;;;16.50;41.50;;;;;;5078703;28;20040;-52
2021/01/16 09:44:57;;;;;;;3.38;2.78;;;16.50;41.50;;;;;;5081136;28;20135;-53
2021/01/16 09:47:50;;;;;;;3.65;2.72;;;16.50;41.50;;;;;;5075493;28;20059;-51
2021/01/16 09:50:20;;;;;;;3.45;3.13;;;16.50;41.30;;;;;;5080613;28;20169;-52
2021/01/16 09:52:52;;;;;;;3.28;2.80;;;16.50;41.30;;;;;;5074127;28;20052;-51
2021/01/16 09:55:21;;;;;;;3.08;2.78;;;16.40;41.40;;;;;;5072349;28;20052;-48
2021/01/16 09:57:49;;;;;;;2.45;2.35;;;16.50;41.40;;;;;;5071477;28;20078;-50
2021/01/16 10:00:17;;;;;;;3.58;3.28;;;16.50;41.50;;;;;;5066918;28;20052;-53
2021/01/16 10:02:45;;;;;;;3.60;2.35;;;16.40;41.40;;;;;;5070164;28;20044;-50
2021/01/16 10:05:26;;;;;;;3.15;2.80;;;16.50;41.50;;;;;;5070582;28;20051;-50
2021/01/16 10:07:53;;;;;;;5.18;4.07;;;16.50;41.50;;;;;;5069637;28;20048;-52
2021/01/16 10:10:20;;;;;;;2.85;2.65;;;16.50;41.50;;;;;;5082226;28;20157;-60
2021/01/16 10:12:49;;;;;;;4.90;2.97;;;16.50;41.50;;;;;;5082402;28;20048;-52
2021/01/16 10:15:17;;;;;;;2.50;2.30;;;16.50;41.50;;;;;;5085201;28;20626;-55
2021/01/16 10:17:46;;;;;;;3.20;2.90;;;16.50;41.50;;;;;;5083240;28;20577;-51
2021/01/16 10:20:16;;;;;;;3.60;3.25;;;16.50;41.60;;;;;;5085140;28;20048;-55
2021/01/16 10:22:47;;;;;;;3.92;3.17;;;16.50;41.60;;;;;;5099567;28;20128;-49
2021/01/16 10:25:15;;;;;;;3.05;2.78;;;16.50;41.50;;;;;;5088497;28;20407;-51
2021/01/16 10:27:44;;;;;;;2.88;2.67;;;16.50;41.50;;;;;;5096077;28;20079;-49
2021/01/16 10:30:16;;;;;;;3.58;3.00;;;16.50;41.70;;;;;;5089860;28;20047;-53
2021/01/16 10:32:43;;;;;;;4.57;3.28;;;16.40;41.70;;;;;;5089485;28;20054;-52
2021/01/16 10:35:18;;;;;;;3.45;3.13;;;16.40;41.60;;;;;;5090556;28;20048;-51
2021/01/16 10:37:45;;;;;;;3.35;2.78;;;16.40;41.50;;;;;;5090242;28;20048;-49
2021/01/16 10:40:12;;;;;;;3.00;2.70;;;16.40;41.50;;;;;;5089057;28;20051;-52
2021/01/16 10:42:44;;;;;;;6.80;3.42;;;16.40;41.70;;;;;;5089741;28;20415;-52
2021/01/16 10:45:13;;;;;;;3.47;3.17;;;16.40;41.70;;;;;;5089600;28;20048;-54
2021/01/16 10:47:43;;;;;;;3.72;2.75;;;16.40;41.60;;;;;;5089422;28;20036;-55
2021/01/16 10:50:11;;;;;;;3.40;3.10;;;16.40;41.70;;;;;;5090142;28;20162;-52
2021/01/16 10:52:38;;;;;;;2.47;2.15;;;16.40;41.80;;;;;;5090141;28;20149;-52
2021/01/16 10:55:07;;;;;;;2.72;2.50;;;16.40;41.90;;;;;;5084713;28;20044;-52
2021/01/16 10:57:42;;;;;;;2.72;2.53;;;16.40;41.80;;;;;;5082806;28;20051;-52
2021/01/16 11:00:13;;;;;;;4.68;3.10;;;16.40;41.80;;;;;;5089488;28;20064;-48
2021/01/16 11:02:42;;;;;;;4.18;3.05;;;16.40;41.80;;;;;;5084425;28;20055;-52
2021/01/16 11:05:21;;;;;;;3.67;2.88;;;16.40;41.80;;;;;;5090220;28;20075;-56
2021/01/16 11:07:49;;;;;;;2.58;2.38;;;16.40;41.90;;;;;;5090034;28;20052;-49
2021/01/16 11:10:17;;;;;;;4.07;2.55;;;16.40;41.90;;;;;;5088118;28;20872;-49
2021/01/16 11:12:44;;;;;;;4.30;2.47;;;16.40;41.90;;;;;;5088914;28;20048;-48
2021/01/16 11:15:25;;;;;;;2.85;2.60;;;16.40;41.90;;;;;;5087396;28;20039;-56
2021/01/16 11:17:56;;;;;;;2.95;2.50;;;16.40;41.80;;;;;;5088751;28;20415;-53
2021/01/16 11:20:27;;;;;;;4.95;3.72;;;16.40;41.80;;;;;;5089461;28;20056;-54
2021/01/16 11:23:27;;;;;;;3.05;2.83;;;16.40;41.80;;;;;;5088650;28;20143;-49
2021/01/16 11:25:54;;;;;;;3.85;3.47;;;16.40;41.80;;;;;;5088760;28;20131;-48
2021/01/16 11:28:22;;;;;;;2.97;2.60;;;16.30;41.70;;;;;;5086309;28;20431;-54
2021/01/16 11:30:51;;;;;;;4.60;4.20;;;16.30;41.70;;;;;;5088479;28;20416;-50
2021/01/16 11:33:25;;;;;;;3.72;3.17;;;16.30;41.70;;;;;;5088273;28;20051;-53
2021/01/16 11:36:06;;;;;;;3.33;2.78;;;16.40;42.00;;;;;;5089108;28;20506;-52
2021/01/16 11:38:41;;;;;;;4.35;3.10;;;16.30;41.90;;;;;;5087474;28;20087;-52
2021/01/16 11:41:12;;;;;;;4.43;3.15;;;16.30;41.80;;;;;;5085436;28;20067;-52
2021/01/16 11:43:39;;;;;;;4.18;3.63;;;16.30;41.80;;;;;;5088999;28;20052;-50
2021/01/16 11:46:08;;;;;;;5.35;3.78;;;16.30;41.90;;;;;;5088277;28;20048;-49
2021/01/16 11:48:37;;;;;;;3.85;3.47;;;16.30;41.80;;;;;;5088299;28;20040;-54
2021/01/16 11:51:14;;;;;;;3.80;3.38;;;16.30;41.80;;;;;;5088254;28;20044;-49
2021/01/16 11:53:44;;;;;;;5.07;3.22;;;16.30;41.90;;;;;;5085119;28;20051;-51
2021/01/16 11:56:13;;;;;;;4.53;4.13;;;16.30;41.80;;;;;;5089020;28;20048;-51
2021/01/16 11:58:40;;;;;;;3.67;3.05;;;16.30;41.90;;;;;;5088961;28;20079;-48
2021/01/16 12:01:07;;;;;;;3.72;3.38;;;16.30;41.90;;;;;;5088078;28;20417;-54
2021/01/16 12:03:34;;;;;;;4.63;2.95;;;16.30;42.00;;;;;;5087929;28;20131;-50
2021/01/16 12:06:12;;;;;;;6.88;3.63;;;16.30;42.00;;;;;;5088086;28;20054;-53
2021/01/16 12:08:41;;;;;;;3.92;3.60;;;16.30;42.00;;;;;;5086685;28;20148;-48
2021/01/16 12:11:08;;;;;;;4.25;3.60;;;16.30;41.90;;;;;;5088922;28;20048;-55
2021/01/16 12:13:35;;;;;;;6.05;3.28;;;16.20;41.90;;;;;;5088396;28;20073;-54
2021/01/16 12:16:02;;;;;;;4.97;4.10;;;16.30;42.00;;;;;;5087711;28;20047;-54
2021/01/16 12:18:28;;;;;;;4.55;3.65;;;16.30;41.90;;;;;;5087337;28;20052;-53
2021/01/16 12:21:02;;;;;;;4.03;3.45;;;16.30;41.90;;;;;;5085586;28;20388;-53
2021/01/16 12:23:39;;;;;;;3.72;3.40;;;16.30;41.90;;;;;;5086947;28;20051;-49
2021/01/16 12:26:09;;;;;;;7.05;3.00;;;16.30;41.90;;;;;;5083917;28;20592;-51
2021/01/16 12:28:39;;;;;;;2.95;2.70;;;16.20;41.80;;;;;;5085064;28;20071;-52
2021/01/16 12:31:06;;;;;;;2.63;1.85;;;16.20;41.90;;;;;;5085257;28;20401;-53
2021/01/16 12:33:33;;;;;;;5.65;2.75;;;16.20;41.90;;;;;;5084680;28;20447;-52
2021/01/16 12:36:07;;;;;;;2.45;1.95;;;16.20;42.00;;;;;;5084934;28;20062;-53
2021/01/16 12:38:35;;;;;;;3.33;2.08;;;16.20;42.00;;;;;;5086771;28;20052;-51
2021/01/16 12:41:01;;;;;;;2.30;1.77;;;16.20;42.00;;;;;;5088812;28;20079;-51
2021/01/16 12:43:28;;;;;;;2.75;2.45;;;16.20;41.90;;;;;;5087324;28;20105;-55
2021/01/16 12:45:54;;;;;;;2.28;1.55;;;16.20;42.00;;;;;;5087007;28;20044;-51
2021/01/16 12:48:28;;;;;;;2.45;2.13;;;16.20;42.10;;;;;;5086564;28;20052;-53
2021/01/16 12:50:57;;;;;;;5.53;2.55;;;16.20;42.20;;;;;;5086961;28;20076;-50
2021/01/16 12:53:24;;;;;;;3.83;2.33;;;16.20;42.10;;;;;;5087429;28;20439;-51
2021/01/16 12:55:52;;;;;;;2.17;1.92;;;16.20;42.20;;;;;;5086735;28;20044;-53
2021/01/16 12:58:19;;;;;;;2.67;2.13;;;16.20;42.20;;;;;;5079932;28;20043;-56
2021/01/16 13:00:46;;;;;;;4.88;2.35;;;16.20;42.30;;;;;;5086885;28;20044;-51
2021/01/16 13:03:13;;;;;;;1.90;1.80;;;16.20;42.30;;;;;;5083829;28;20052;-53